sensor_id;sensor_type;location;lat;lon;timestamp;temperature;humidity
79055;DHT22;68452;47.186;-1.528;2023-06-10T00:01:43;22.90;71.70
79055;DHT22;68452;47.186;-1.528;2023-06-10T00:04:15;22.90;71.70
79055;DHT22;68452;47.186;-1.528;2023-06-10T00:06:43;22.90;71.40
79055;DHT22;68452;47.186;-1.528;2023-06-10T00:09:09;23.00;71.30
79055;DHT22;68452;47.186;-1.528;2023-06-10T00:11:40;22.90;71.30
79055;DHT22;68452;47.186;-1.528;2023-06-10T00:14:06;22.90;71.30
79055;DHT22;68452;47.186;-1.528;2023-06-10T00:16:32;22.90;71.30
79055;DHT22;68452;47.186;-1.528;2023-06-10T00:19:02;22.90;71.20
79055;DHT22;68452;47.186;-1.528;2023-06-10T00:21:28;22.90;71.20
79055;DHT22;68452;47.186;-1.528;2023-06-10T00:23:54;22.90;71.10
79055;DHT22;68452;47.186;-1.528;2023-06-10T00:26:22;22.90;70.90
79055;DHT22;68452;47.186;-1.528;2023-06-10T00:28:48;22.90;70.90
79055;DHT22;68452;47.186;-1.528;2023-06-10T00:31:14;22.90;71.00
79055;DHT22;68452;47.186;-1.528;2023-06-10T00:33:40;22.90;71.10
79055;DHT22;68452;47.186;-1.528;2023-06-10T00:36:05;22.90;71.10
79055;DHT22;68452;47.186;-1.528;2023-06-10T00:38:31;22.90;70.80
79055;DHT22;68452;47.186;-1.528;2023-06-10T00:40:57;22.90;70.90
79055;DHT22;68452;47.186;-1.528;2023-06-10T00:43:23;22.90;70.80
79055;DHT22;68452;47.186;-1.528;2023-06-10T00:45:50;22.90;70.70
79055;DHT22;68452;47.186;-1.528;2023-06-10T00:48:17;22.90;70.50
79055;DHT22;68452;47.186;-1.528;2023-06-10T00:50:43;22.80;70.60
79055;DHT22;68452;47.186;-1.528;2023-06-10T00:53:09;22.80;70.50
79055;DHT22;68452;47.186;-1.528;2023-06-10T00:55:36;22.80;70.40
79055;DHT22;68452;47.186;-1.528;2023-06-10T00:58:03;22.80;70.50
79055;DHT22;68452;47.186;-1.528;2023-06-10T01:00:29;22.80;70.40
79055;DHT22;68452;47.186;-1.528;2023-06-10T01:02:55;22.80;70.30
79055;DHT22;68452;47.186;-1.528;2023-06-10T01:05:23;22.80;70.40
79055;DHT22;68452;47.186;-1.528;2023-06-10T01:08:25;22.70;70.30
79055;DHT22;68452;47.186;-1.528;2023-06-10T01:10:58;22.70;70.10
79055;DHT22;68452;47.186;-1.528;2023-06-10T01:13:25;22.70;70.20
79055;DHT22;68452;47.186;-1.528;2023-06-10T01:15:57;22.60;70.10
79055;DHT22;68452;47.186;-1.528;2023-06-10T01:18:29;22.60;70.10
79055;DHT22;68452;47.186;-1.528;2023-06-10T01:20:56;22.60;70.10
79055;DHT22;68452;47.186;-1.528;2023-06-10T01:23:22;22.60;70.10
79055;DHT22;68452;47.186;-1.528;2023-06-10T01:28:29;22.60;70.00
79055;DHT22;68452;47.186;-1.528;2023-06-10T01:31:23;22.60;70.10
79055;DHT22;68452;47.186;-1.528;2023-06-10T01:34:00;22.60;70.00
79055;DHT22;68452;47.186;-1.528;2023-06-10T01:36:27;22.60;70.00
79055;DHT22;68452;47.186;-1.528;2023-06-10T01:38:53;22.60;70.00
79055;DHT22;68452;47.186;-1.528;2023-06-10T01:41:21;22.60;69.80
79055;DHT22;68452;47.186;-1.528;2023-06-10T01:43:47;22.50;69.80
79055;DHT22;68452;47.186;-1.528;2023-06-10T01:46:15;22.50;69.80
79055;DHT22;68452;47.186;-1.528;2023-06-10T01:48:42;22.50;69.50
79055;DHT22;68452;47.186;-1.528;2023-06-10T01:51:07;22.50;69.50
79055;DHT22;68452;47.186;-1.528;2023-06-10T01:53:33;22.50;69.30
79055;DHT22;68452;47.186;-1.528;2023-06-10T01:55:59;22.50;69.30
79055;DHT22;68452;47.186;-1.528;2023-06-10T01:58:25;22.40;69.20
79055;DHT22;68452;47.186;-1.528;2023-06-10T02:00:51;22.40;69.30
79055;DHT22;68452;47.186;-1.528;2023-06-10T02:03:17;22.40;69.20
79055;DHT22;68452;47.186;-1.528;2023-06-10T02:05:43;22.40;69.40
79055;DHT22;68452;47.186;-1.528;2023-06-10T02:08:09;22.30;69.50
79055;DHT22;68452;47.186;-1.528;2023-06-10T02:10:35;22.30;69.50
79055;DHT22;68452;47.186;-1.528;2023-06-10T02:13:01;22.30;69.30
79055;DHT22;68452;47.186;-1.528;2023-06-10T02:15:27;22.30;69.30
79055;DHT22;68452;47.186;-1.528;2023-06-10T02:17:52;22.20;69.20
79055;DHT22;68452;47.186;-1.528;2023-06-10T02:20:20;22.20;69.30
79055;DHT22;68452;47.186;-1.528;2023-06-10T02:22:46;22.20;69.20
79055;DHT22;68452;47.186;-1.528;2023-06-10T02:25:12;22.20;69.20
79055;DHT22;68452;47.186;-1.528;2023-06-10T02:27:38;22.20;69.10
79055;DHT22;68452;47.186;-1.528;2023-06-10T02:30:04;22.20;69.00
79055;DHT22;68452;47.186;-1.528;2023-06-10T02:32:30;22.10;69.10
79055;DHT22;68452;47.186;-1.528;2023-06-10T02:34:56;22.10;69.00
79055;DHT22;68452;47.186;-1.528;2023-06-10T02:37:23;22.10;69.10
79055;DHT22;68452;47.186;-1.528;2023-06-10T02:39:49;22.00;69.00
79055;DHT22;68452;47.186;-1.528;2023-06-10T02:42:15;22.00;69.30
79055;DHT22;68452;47.186;-1.528;2023-06-10T02:44:40;22.00;69.20
79055;DHT22;68452;47.186;-1.528;2023-06-10T02:47:06;22.00;69.10
79055;DHT22;68452;47.186;-1.528;2023-06-10T02:49:32;22.00;69.10
79055;DHT22;68452;47.186;-1.528;2023-06-10T02:51:58;22.00;69.20
79055;DHT22;68452;47.186;-1.528;2023-06-10T02:54:24;21.90;69.10
79055;DHT22;68452;47.186;-1.528;2023-06-10T02:56:51;21.90;69.10
79055;DHT22;68452;47.186;-1.528;2023-06-10T02:59:17;21.90;69.20
79055;DHT22;68452;47.186;-1.528;2023-06-10T03:01:43;21.90;69.20
79055;DHT22;68452;47.186;-1.528;2023-06-10T03:04:09;21.80;69.10
79055;DHT22;68452;47.186;-1.528;2023-06-10T03:06:35;21.80;69.20
79055;DHT22;68452;47.186;-1.528;2023-06-10T03:09:02;21.80;69.40
79055;DHT22;68452;47.186;-1.528;2023-06-10T03:11:33;21.80;69.40
79055;DHT22;68452;47.186;-1.528;2023-06-10T03:13:59;21.80;69.30
79055;DHT22;68452;47.186;-1.528;2023-06-10T03:16:25;21.70;69.30
79055;DHT22;68452;47.186;-1.528;2023-06-10T03:18:51;21.70;69.40
79055;DHT22;68452;47.186;-1.528;2023-06-10T03:21:16;21.70;69.30
79055;DHT22;68452;47.186;-1.528;2023-06-10T03:23:42;21.70;69.20
79055;DHT22;68452;47.186;-1.528;2023-06-10T03:26:08;21.70;69.30
79055;DHT22;68452;47.186;-1.528;2023-06-10T03:28:35;21.70;69.30
79055;DHT22;68452;47.186;-1.528;2023-06-10T03:31:01;21.60;69.30
79055;DHT22;68452;47.186;-1.528;2023-06-10T03:33:27;21.60;69.40
79055;DHT22;68452;47.186;-1.528;2023-06-10T03:35:53;21.60;69.50
79055;DHT22;68452;47.186;-1.528;2023-06-10T03:38:19;21.60;69.40
79055;DHT22;68452;47.186;-1.528;2023-06-10T03:40:45;21.60;69.40
79055;DHT22;68452;47.186;-1.528;2023-06-10T03:43:10;21.60;69.50
79055;DHT22;68452;47.186;-1.528;2023-06-10T03:45:36;21.60;69.40
79055;DHT22;68452;47.186;-1.528;2023-06-10T03:48:02;21.60;69.50
79055;DHT22;68452;47.186;-1.528;2023-06-10T03:50:29;21.60;69.50
79055;DHT22;68452;47.186;-1.528;2023-06-10T03:52:55;21.50;69.40
79055;DHT22;68452;47.186;-1.528;2023-06-10T03:55:21;21.50;69.30
79055;DHT22;68452;47.186;-1.528;2023-06-10T03:57:49;21.50;69.30
79055;DHT22;68452;47.186;-1.528;2023-06-10T04:00:16;21.50;69.30
79055;DHT22;68452;47.186;-1.528;2023-06-10T04:02:43;21.50;69.40
79055;DHT22;68452;47.186;-1.528;2023-06-10T04:05:18;21.40;69.50
79055;DHT22;68452;47.186;-1.528;2023-06-10T04:07:44;21.40;69.30
79055;DHT22;68452;47.186;-1.528;2023-06-10T04:10:11;21.40;69.40
79055;DHT22;68452;47.186;-1.528;2023-06-10T04:12:37;21.40;69.30
79055;DHT22;68452;47.186;-1.528;2023-06-10T04:15:04;21.40;69.40
79055;DHT22;68452;47.186;-1.528;2023-06-10T04:17:30;21.40;69.40
79055;DHT22;68452;47.186;-1.528;2023-06-10T04:19:56;21.40;69.50
79055;DHT22;68452;47.186;-1.528;2023-06-10T04:22:22;21.40;69.50
79055;DHT22;68452;47.186;-1.528;2023-06-10T04:24:48;21.40;69.50
79055;DHT22;68452;47.186;-1.528;2023-06-10T04:27:14;21.40;69.60
79055;DHT22;68452;47.186;-1.528;2023-06-10T04:29:40;21.40;69.50
79055;DHT22;68452;47.186;-1.528;2023-06-10T04:32:06;21.40;69.60
79055;DHT22;68452;47.186;-1.528;2023-06-10T04:34:36;21.40;69.50
79055;DHT22;68452;47.186;-1.528;2023-06-10T04:37:02;21.40;69.60
79055;DHT22;68452;47.186;-1.528;2023-06-10T04:39:28;21.40;69.60
79055;DHT22;68452;47.186;-1.528;2023-06-10T04:41:54;21.40;69.60
79055;DHT22;68452;47.186;-1.528;2023-06-10T04:44:20;21.40;69.80
79055;DHT22;68452;47.186;-1.528;2023-06-10T04:46:46;21.40;69.80
79055;DHT22;68452;47.186;-1.528;2023-06-10T04:49:13;21.40;69.90
79055;DHT22;68452;47.186;-1.528;2023-06-10T04:51:40;21.50;69.90
79055;DHT22;68452;47.186;-1.528;2023-06-10T04:54:06;21.50;69.90
79055;DHT22;68452;47.186;-1.528;2023-06-10T04:56:33;21.50;69.90
79055;DHT22;68452;47.186;-1.528;2023-06-10T04:58:59;21.50;69.90
79055;DHT22;68452;47.186;-1.528;2023-06-10T05:01:25;21.50;69.90
79055;DHT22;68452;47.186;-1.528;2023-06-10T05:03:51;21.50;69.90
79055;DHT22;68452;47.186;-1.528;2023-06-10T05:06:17;21.50;69.90
79055;DHT22;68452;47.186;-1.528;2023-06-10T05:08:43;21.60;69.80
79055;DHT22;68452;47.186;-1.528;2023-06-10T05:11:09;21.50;69.80
79055;DHT22;68452;47.186;-1.528;2023-06-10T05:13:35;21.50;69.80
79055;DHT22;68452;47.186;-1.528;2023-06-10T05:16:01;21.50;69.70
79055;DHT22;68452;47.186;-1.528;2023-06-10T05:18:27;21.50;69.50
79055;DHT22;68452;47.186;-1.528;2023-06-10T05:20:53;21.50;69.80
79055;DHT22;68452;47.186;-1.528;2023-06-10T05:23:20;21.50;69.90
79055;DHT22;68452;47.186;-1.528;2023-06-10T05:25:46;21.60;70.00
79055;DHT22;68452;47.186;-1.528;2023-06-10T05:28:12;21.60;70.00
79055;DHT22;68452;47.186;-1.528;2023-06-10T05:30:38;21.60;70.20
79055;DHT22;68452;47.186;-1.528;2023-06-10T05:33:04;21.60;70.20
79055;DHT22;68452;47.186;-1.528;2023-06-10T05:35:31;21.70;70.10
79055;DHT22;68452;47.186;-1.528;2023-06-10T05:37:57;21.70;70.00
79055;DHT22;68452;47.186;-1.528;2023-06-10T05:40:22;21.70;70.00
79055;DHT22;68452;47.186;-1.528;2023-06-10T05:42:49;21.80;70.20
79055;DHT22;68452;47.186;-1.528;2023-06-10T05:45:15;21.80;70.20
79055;DHT22;68452;47.186;-1.528;2023-06-10T05:47:41;21.80;70.20
79055;DHT22;68452;47.186;-1.528;2023-06-10T05:50:07;21.90;70.20
79055;DHT22;68452;47.186;-1.528;2023-06-10T05:52:35;21.90;70.30
79055;DHT22;68452;47.186;-1.528;2023-06-10T05:55:04;21.90;70.00
79055;DHT22;68452;47.186;-1.528;2023-06-10T05:57:30;21.90;70.30
79055;DHT22;68452;47.186;-1.528;2023-06-10T05:59:56;21.90;70.60
79055;DHT22;68452;47.186;-1.528;2023-06-10T06:02:22;21.90;70.60
79055;DHT22;68452;47.186;-1.528;2023-06-10T06:04:48;22.00;70.70
79055;DHT22;68452;47.186;-1.528;2023-06-10T06:07:14;22.00;70.70
79055;DHT22;68452;47.186;-1.528;2023-06-10T06:09:40;22.00;70.10
79055;DHT22;68452;47.186;-1.528;2023-06-10T06:12:06;22.00;70.40
79055;DHT22;68452;47.186;-1.528;2023-06-10T06:14:32;22.10;70.60
79055;DHT22;68452;47.186;-1.528;2023-06-10T06:17:02;22.10;70.50
79055;DHT22;68452;47.186;-1.528;2023-06-10T06:19:28;22.10;70.60
79055;DHT22;68452;47.186;-1.528;2023-06-10T06:21:54;22.20;70.50
79055;DHT22;68452;47.186;-1.528;2023-06-10T06:24:20;22.20;70.70
79055;DHT22;68452;47.186;-1.528;2023-06-10T06:26:45;22.20;70.70
79055;DHT22;68452;47.186;-1.528;2023-06-10T06:29:11;22.10;70.70
79055;DHT22;68452;47.186;-1.528;2023-06-10T06:31:37;22.10;70.60
79055;DHT22;68452;47.186;-1.528;2023-06-10T06:34:03;22.20;70.50
79055;DHT22;68452;47.186;-1.528;2023-06-10T06:36:28;22.20;70.70
79055;DHT22;68452;47.186;-1.528;2023-06-10T06:38:54;22.20;70.80
79055;DHT22;68452;47.186;-1.528;2023-06-10T06:41:20;22.20;70.60
79055;DHT22;68452;47.186;-1.528;2023-06-10T06:43:47;22.20;70.20
79055;DHT22;68452;47.186;-1.528;2023-06-10T06:46:13;22.30;70.20
79055;DHT22;68452;47.186;-1.528;2023-06-10T06:48:39;22.30;70.10
79055;DHT22;68452;47.186;-1.528;2023-06-10T06:51:05;22.30;70.20
79055;DHT22;68452;47.186;-1.528;2023-06-10T06:53:31;22.30;70.20
79055;DHT22;68452;47.186;-1.528;2023-06-10T06:55:57;22.30;70.20
79055;DHT22;68452;47.186;-1.528;2023-06-10T06:58:23;22.30;70.30
79055;DHT22;68452;47.186;-1.528;2023-06-10T07:00:49;22.30;70.30
79055;DHT22;68452;47.186;-1.528;2023-06-10T07:03:16;22.40;70.00
79055;DHT22;68452;47.186;-1.528;2023-06-10T07:05:42;22.30;69.80
79055;DHT22;68452;47.186;-1.528;2023-06-10T07:08:07;22.30;70.00
79055;DHT22;68452;47.186;-1.528;2023-06-10T07:10:33;22.30;69.80
79055;DHT22;68452;47.186;-1.528;2023-06-10T07:12:59;22.40;69.90
79055;DHT22;68452;47.186;-1.528;2023-06-10T07:15:25;22.40;69.50
79055;DHT22;68452;47.186;-1.528;2023-06-10T07:17:51;22.40;69.70
79055;DHT22;68452;47.186;-1.528;2023-06-10T07:20:17;22.40;69.80
79055;DHT22;68452;47.186;-1.528;2023-06-10T07:22:43;22.40;69.70
79055;DHT22;68452;47.186;-1.528;2023-06-10T07:25:09;22.40;69.80
79055;DHT22;68452;47.186;-1.528;2023-06-10T07:27:35;22.40;69.70
79055;DHT22;68452;47.186;-1.528;2023-06-10T07:30:04;22.40;69.80
79055;DHT22;68452;47.186;-1.528;2023-06-10T07:32:31;22.40;69.70
79055;DHT22;68452;47.186;-1.528;2023-06-10T07:34:57;22.30;69.80
79055;DHT22;68452;47.186;-1.528;2023-06-10T07:37:23;22.30;70.10
79055;DHT22;68452;47.186;-1.528;2023-06-10T07:39:49;22.30;70.00
79055;DHT22;68452;47.186;-1.528;2023-06-10T07:42:15;22.30;70.40
79055;DHT22;68452;47.186;-1.528;2023-06-10T07:44:42;22.30;70.40
79055;DHT22;68452;47.186;-1.528;2023-06-10T07:47:07;22.40;70.40
79055;DHT22;68452;47.186;-1.528;2023-06-10T07:49:33;22.50;70.30
79055;DHT22;68452;47.186;-1.528;2023-06-10T07:51:59;22.50;70.10
79055;DHT22;68452;47.186;-1.528;2023-06-10T07:54:25;22.50;70.10
79055;DHT22;68452;47.186;-1.528;2023-06-10T07:56:51;22.60;70.30
79055;DHT22;68452;47.186;-1.528;2023-06-10T07:59:18;22.60;70.10
79055;DHT22;68452;47.186;-1.528;2023-06-10T08:01:44;22.70;69.70
79055;DHT22;68452;47.186;-1.528;2023-06-10T08:04:11;22.70;69.70
79055;DHT22;68452;47.186;-1.528;2023-06-10T08:06:36;22.70;69.50
79055;DHT22;68452;47.186;-1.528;2023-06-10T08:09:03;22.60;70.00
79055;DHT22;68452;47.186;-1.528;2023-06-10T08:11:29;22.60;69.80
79055;DHT22;68452;47.186;-1.528;2023-06-10T08:13:55;22.60;70.10
79055;DHT22;68452;47.186;-1.528;2023-06-10T08:16:21;22.60;70.00
79055;DHT22;68452;47.186;-1.528;2023-06-10T08:18:47;22.70;70.10
79055;DHT22;68452;47.186;-1.528;2023-06-10T08:21:12;22.80;69.90
79055;DHT22;68452;47.186;-1.528;2023-06-10T08:23:38;22.80;70.00
79055;DHT22;68452;47.186;-1.528;2023-06-10T08:26:04;22.90;69.80
79055;DHT22;68452;47.186;-1.528;2023-06-10T08:28:30;22.90;69.80
79055;DHT22;68452;47.186;-1.528;2023-06-10T08:30:56;22.90;69.70
79055;DHT22;68452;47.186;-1.528;2023-06-10T08:33:22;22.80;69.60
79055;DHT22;68452;47.186;-1.528;2023-06-10T08:35:47;22.80;69.80
79055;DHT22;68452;47.186;-1.528;2023-06-10T08:38:13;22.80;69.90
79055;DHT22;68452;47.186;-1.528;2023-06-10T08:40:39;22.70;69.80
79055;DHT22;68452;47.186;-1.528;2023-06-10T08:43:17;22.70;69.90
79055;DHT22;68452;47.186;-1.528;2023-06-10T08:45:43;22.70;69.90
79055;DHT22;68452;47.186;-1.528;2023-06-10T08:48:13;22.70;69.90
79055;DHT22;68452;47.186;-1.528;2023-06-10T08:50:41;22.70;70.10
79055;DHT22;68452;47.186;-1.528;2023-06-10T08:53:08;22.70;70.00
79055;DHT22;68452;47.186;-1.528;2023-06-10T08:55:37;22.90;70.40
79055;DHT22;68452;47.186;-1.528;2023-06-10T08:58:04;23.10;70.10
79055;DHT22;68452;47.186;-1.528;2023-06-10T09:00:31;23.30;69.20
79055;DHT22;68452;47.186;-1.528;2023-06-10T09:02:58;23.40;68.60
79055;DHT22;68452;47.186;-1.528;2023-06-10T09:05:25;23.50;68.20
79055;DHT22;68452;47.186;-1.528;2023-06-10T09:07:52;23.50;68.40
79055;DHT22;68452;47.186;-1.528;2023-06-10T09:10:19;23.50;68.50
79055;DHT22;68452;47.186;-1.528;2023-06-10T09:12:45;23.70;67.60
79055;DHT22;68452;47.186;-1.528;2023-06-10T09:15:11;23.80;67.40
79055;DHT22;68452;47.186;-1.528;2023-06-10T09:17:40;23.90;66.90
79055;DHT22;68452;47.186;-1.528;2023-06-10T09:20:07;24.00;67.00
79055;DHT22;68452;47.186;-1.528;2023-06-10T09:22:34;24.00;66.60
79055;DHT22;68452;47.186;-1.528;2023-06-10T09:27:31;24.00;66.80
79055;DHT22;68452;47.186;-1.528;2023-06-10T09:29:59;23.90;66.50
79055;DHT22;68452;47.186;-1.528;2023-06-10T09:32:26;23.90;67.00
79055;DHT22;68452;47.186;-1.528;2023-06-10T09:34:52;23.90;66.50
79055;DHT22;68452;47.186;-1.528;2023-06-10T09:37:23;24.00;67.10
79055;DHT22;68452;47.186;-1.528;2023-06-10T09:40:05;24.10;66.50
79055;DHT22;68452;47.186;-1.528;2023-06-10T09:42:36;24.20;66.20
79055;DHT22;68452;47.186;-1.528;2023-06-10T09:45:04;24.40;66.30
79055;DHT22;68452;47.186;-1.528;2023-06-10T09:47:31;24.60;65.80
79055;DHT22;68452;47.186;-1.528;2023-06-10T09:49:59;24.70;64.00
79055;DHT22;68452;47.186;-1.528;2023-06-10T09:52:27;24.80;64.00
79055;DHT22;68452;47.186;-1.528;2023-06-10T09:55:01;24.90;62.50
79055;DHT22;68452;47.186;-1.528;2023-06-10T09:57:31;24.90;62.70
79055;DHT22;68452;47.186;-1.528;2023-06-10T10:00:11;24.80;62.70
79055;DHT22;68452;47.186;-1.528;2023-06-10T10:02:51;24.80;62.40
79055;DHT22;68452;47.186;-1.528;2023-06-10T10:05:20;25.00;62.20
79055;DHT22;68452;47.186;-1.528;2023-06-10T10:07:47;25.00;62.40
79055;DHT22;68452;47.186;-1.528;2023-06-10T10:10:15;25.00;62.10
79055;DHT22;68452;47.186;-1.528;2023-06-10T10:12:42;25.00;61.60
79055;DHT22;68452;47.186;-1.528;2023-06-10T10:15:11;25.20;60.90
79055;DHT22;68452;47.186;-1.528;2023-06-10T10:17:43;25.40;60.40
79055;DHT22;68452;47.186;-1.528;2023-06-10T10:20:14;25.60;58.30
79055;DHT22;68452;47.186;-1.528;2023-06-10T10:22:43;25.50;58.10
79055;DHT22;68452;47.186;-1.528;2023-06-10T10:28:10;26.10;57.80
79055;DHT22;68452;47.186;-1.528;2023-06-10T10:30:42;26.50;56.80
79055;DHT22;68452;47.186;-1.528;2023-06-10T10:33:22;27.40;55.50
79055;DHT22;68452;47.186;-1.528;2023-06-10T10:35:52;28.10;52.80
79055;DHT22;68452;47.186;-1.528;2023-06-10T10:38:24;28.20;51.90
79055;DHT22;68452;47.186;-1.528;2023-06-10T10:40:51;29.70;50.80
79055;DHT22;68452;47.186;-1.528;2023-06-10T10:43:18;31.00;48.60
79055;DHT22;68452;47.186;-1.528;2023-06-10T10:46:00;31.80;45.10
79055;DHT22;68452;47.186;-1.528;2023-06-10T10:48:33;30.60;46.90
79055;DHT22;68452;47.186;-1.528;2023-06-10T10:51:00;30.60;47.00
79055;DHT22;68452;47.186;-1.528;2023-06-10T10:53:27;30.70;45.40
79055;DHT22;68452;47.186;-1.528;2023-06-10T10:56:15;29.90;46.70
79055;DHT22;68452;47.186;-1.528;2023-06-10T10:59:04;30.30;47.40
79055;DHT22;68452;47.186;-1.528;2023-06-10T11:01:41;31.10;45.40
79055;DHT22;68452;47.186;-1.528;2023-06-10T11:04:08;31.50;46.10
79055;DHT22;68452;47.186;-1.528;2023-06-10T11:06:36;32.20;45.00
79055;DHT22;68452;47.186;-1.528;2023-06-10T11:09:26;31.10;45.20
79055;DHT22;68452;47.186;-1.528;2023-06-10T11:11:57;30.10;47.30
79055;DHT22;68452;47.186;-1.528;2023-06-10T11:14:28;29.70;48.00
79055;DHT22;68452;47.186;-1.528;2023-06-10T11:16:57;29.40;48.00
79055;DHT22;68452;47.186;-1.528;2023-06-10T11:19:37;29.40;48.80
79055;DHT22;68452;47.186;-1.528;2023-06-10T11:22:06;29.70;48.10
79055;DHT22;68452;47.186;-1.528;2023-06-10T11:24:33;30.40;47.10
79055;DHT22;68452;47.186;-1.528;2023-06-10T11:27:37;30.80;46.80
79055;DHT22;68452;47.186;-1.528;2023-06-10T11:32:32;30.70;45.30
79055;DHT22;68452;47.186;-1.528;2023-06-10T11:34:58;29.90;46.20
79055;DHT22;68452;47.186;-1.528;2023-06-10T11:37:25;29.60;47.00
79055;DHT22;68452;47.186;-1.528;2023-06-10T11:39:54;29.40;47.10
79055;DHT22;68452;47.186;-1.528;2023-06-10T11:42:22;29.10;46.90
79055;DHT22;68452;47.186;-1.528;2023-06-10T11:44:52;29.00;47.80
79055;DHT22;68452;47.186;-1.528;2023-06-10T11:47:19;28.80;47.60
79055;DHT22;68452;47.186;-1.528;2023-06-10T11:49:46;28.70;47.40
79055;DHT22;68452;47.186;-1.528;2023-06-10T11:52:12;28.60;47.90
79055;DHT22;68452;47.186;-1.528;2023-06-10T11:54:38;28.60;48.50
79055;DHT22;68452;47.186;-1.528;2023-06-10T11:57:04;28.60;48.00
79055;DHT22;68452;47.186;-1.528;2023-06-10T11:59:33;28.50;48.10
79055;DHT22;68452;47.186;-1.528;2023-06-10T12:01:59;28.80;47.40
79055;DHT22;68452;47.186;-1.528;2023-06-10T12:04:25;29.00;47.00
79055;DHT22;68452;47.186;-1.528;2023-06-10T12:06:55;29.10;47.30
79055;DHT22;68452;47.186;-1.528;2023-06-10T12:09:27;29.40;46.30
79055;DHT22;68452;47.186;-1.528;2023-06-10T12:12:00;29.20;46.10
79055;DHT22;68452;47.186;-1.528;2023-06-10T12:14:55;29.20;47.00
79055;DHT22;68452;47.186;-1.528;2023-06-10T12:17:42;29.60;46.70
79055;DHT22;68452;47.186;-1.528;2023-06-10T12:20:24;29.70;45.50
79055;DHT22;68452;47.186;-1.528;2023-06-10T12:22:50;29.60;46.30
79055;DHT22;68452;47.186;-1.528;2023-06-10T12:25:16;29.60;46.20
79055;DHT22;68452;47.186;-1.528;2023-06-10T12:27:51;29.30;46.10
79055;DHT22;68452;47.186;-1.528;2023-06-10T12:30:20;29.00;47.70
79055;DHT22;68452;47.186;-1.528;2023-06-10T12:32:46;29.30;47.00
79055;DHT22;68452;47.186;-1.528;2023-06-10T12:35:17;30.40;45.60
79055;DHT22;68452;47.186;-1.528;2023-06-10T12:37:59;30.40;44.70
79055;DHT22;68452;47.186;-1.528;2023-06-10T12:40:43;30.60;44.60
79055;DHT22;68452;47.186;-1.528;2023-06-10T12:43:10;30.40;45.60
79055;DHT22;68452;47.186;-1.528;2023-06-10T12:45:39;30.20;46.80
79055;DHT22;68452;47.186;-1.528;2023-06-10T12:48:22;29.80;46.70
79055;DHT22;68452;47.186;-1.528;2023-06-10T12:50:57;29.70;46.80
79055;DHT22;68452;47.186;-1.528;2023-06-10T12:53:24;29.50;46.20
79055;DHT22;68452;47.186;-1.528;2023-06-10T12:55:52;29.30;46.60
79055;DHT22;68452;47.186;-1.528;2023-06-10T12:58:19;29.50;46.70
79055;DHT22;68452;47.186;-1.528;2023-06-10T13:00:46;30.00;46.40
79055;DHT22;68452;47.186;-1.528;2023-06-10T13:03:14;30.00;45.80
79055;DHT22;68452;47.186;-1.528;2023-06-10T13:05:41;29.70;46.30
79055;DHT22;68452;47.186;-1.528;2023-06-10T13:08:08;29.60;46.00
79055;DHT22;68452;47.186;-1.528;2023-06-10T13:10:54;29.20;45.60
79055;DHT22;68452;47.186;-1.528;2023-06-10T13:13:20;29.10;47.10
79055;DHT22;68452;47.186;-1.528;2023-06-10T13:15:46;29.00;47.00
79055;DHT22;68452;47.186;-1.528;2023-06-10T13:18:12;29.10;46.90
79055;DHT22;68452;47.186;-1.528;2023-06-10T13:20:37;29.30;46.80
79055;DHT22;68452;47.186;-1.528;2023-06-10T13:23:03;29.60;46.90
79055;DHT22;68452;47.186;-1.528;2023-06-10T13:25:29;29.70;46.40
79055;DHT22;68452;47.186;-1.528;2023-06-10T13:27:55;29.80;46.30
79055;DHT22;68452;47.186;-1.528;2023-06-10T13:30:21;30.00;45.50
79055;DHT22;68452;47.186;-1.528;2023-06-10T13:32:47;29.80;45.30
79055;DHT22;68452;47.186;-1.528;2023-06-10T13:35:13;29.60;44.30
79055;DHT22;68452;47.186;-1.528;2023-06-10T13:37:39;29.40;43.70
79055;DHT22;68452;47.186;-1.528;2023-06-10T13:40:05;29.30;45.10
79055;DHT22;68452;47.186;-1.528;2023-06-10T13:42:33;29.20;45.00
79055;DHT22;68452;47.186;-1.528;2023-06-10T13:45:01;29.20;44.60
79055;DHT22;68452;47.186;-1.528;2023-06-10T13:47:27;29.20;44.20
79055;DHT22;68452;47.186;-1.528;2023-06-10T13:49:53;29.20;43.70
79055;DHT22;68452;47.186;-1.528;2023-06-10T13:52:19;29.20;42.70
79055;DHT22;68452;47.186;-1.528;2023-06-10T13:54:46;29.50;42.80
79055;DHT22;68452;47.186;-1.528;2023-06-10T13:57:12;29.70;43.20
79055;DHT22;68452;47.186;-1.528;2023-06-10T13:59:39;29.80;42.40
79055;DHT22;68452;47.186;-1.528;2023-06-10T14:02:05;29.80;43.00
79055;DHT22;68452;47.186;-1.528;2023-06-10T14:04:31;29.70;42.40
79055;DHT22;68452;47.186;-1.528;2023-06-10T14:06:58;29.60;43.20
79055;DHT22;68452;47.186;-1.528;2023-06-10T14:09:38;29.80;41.50
79055;DHT22;68452;47.186;-1.528;2023-06-10T14:12:07;30.20;42.00
79055;DHT22;68452;47.186;-1.528;2023-06-10T14:14:33;32.10;40.20
79055;DHT22;68452;47.186;-1.528;2023-06-10T14:16:59;34.90;35.10
79055;DHT22;68452;47.186;-1.528;2023-06-10T14:19:25;36.50;32.60
79055;DHT22;68452;47.186;-1.528;2023-06-10T14:21:50;36.80;31.90
79055;DHT22;68452;47.186;-1.528;2023-06-10T14:24:18;36.30;32.50
79055;DHT22;68452;47.186;-1.528;2023-06-10T14:26:44;35.50;33.60
79055;DHT22;68452;47.186;-1.528;2023-06-10T14:29:10;34.80;34.20
79055;DHT22;68452;47.186;-1.528;2023-06-10T14:31:36;34.10;35.50
79055;DHT22;68452;47.186;-1.528;2023-06-10T14:34:01;33.60;36.30
79055;DHT22;68452;47.186;-1.528;2023-06-10T14:36:27;33.10;37.50
79055;DHT22;68452;47.186;-1.528;2023-06-10T14:38:53;32.70;38.60
79055;DHT22;68452;47.186;-1.528;2023-06-10T14:41:19;32.50;39.40
79055;DHT22;68452;47.186;-1.528;2023-06-10T14:43:45;32.20;39.30
79055;DHT22;68452;47.186;-1.528;2023-06-10T14:46:11;31.80;39.20
79055;DHT22;68452;47.186;-1.528;2023-06-10T14:48:37;31.60;39.60
79055;DHT22;68452;47.186;-1.528;2023-06-10T14:51:03;31.50;41.60
79055;DHT22;68452;47.186;-1.528;2023-06-10T14:53:29;31.50;40.40
79055;DHT22;68452;47.186;-1.528;2023-06-10T14:55:55;31.40;41.80
79055;DHT22;68452;47.186;-1.528;2023-06-10T14:58:21;31.30;41.70
79055;DHT22;68452;47.186;-1.528;2023-06-10T15:00:46;31.20;41.50
79055;DHT22;68452;47.186;-1.528;2023-06-10T15:03:12;31.10;41.50
79055;DHT22;68452;47.186;-1.528;2023-06-10T15:05:38;31.00;41.30
79055;DHT22;68452;47.186;-1.528;2023-06-10T15:08:04;30.80;41.80
79055;DHT22;68452;47.186;-1.528;2023-06-10T15:10:30;30.70;41.90
79055;DHT22;68452;47.186;-1.528;2023-06-10T15:12:56;30.50;41.50
79055;DHT22;68452;47.186;-1.528;2023-06-10T15:15:23;30.40;41.70
79055;DHT22;68452;47.186;-1.528;2023-06-10T15:17:49;30.30;43.00
79055;DHT22;68452;47.186;-1.528;2023-06-10T15:20:15;30.30;42.00
79055;DHT22;68452;47.186;-1.528;2023-06-10T15:22:41;30.20;41.40
79055;DHT22;68452;47.186;-1.528;2023-06-10T15:25:07;30.20;41.90
79055;DHT22;68452;47.186;-1.528;2023-06-10T15:27:33;30.00;41.50
79055;DHT22;68452;47.186;-1.528;2023-06-10T15:29:59;29.90;41.60